Time;durP1;ratioP1;P1;durP2;ratioP2;P2;SDS_P1;SDS_P2;PMS_P1;PMS_P2;Temp;Humidity;BMP_temperature;BMP_pressure;BME280_temperature;BME280_humidity;BME280_pressure;Samples;Min_cycle;Max_cycle;Signal;HPM_P1;HPM_P2
2022/12/24 00:01:32;;;;;;;;;;;9.70;99.90;;;9.05;100.00;96735.72;5001648;28;19975;-59
2022/12/24 00:03:58;;;;;;;;;;;9.60;99.90;;;9.08;100.00;96726.81;5005317;28;19921;-59
2022/12/24 00:06:24;;;;;;;;;;;9.70;99.90;;;9.13;100.00;96719.59;5010412;28;19933;-59
2022/12/24 00:08:50;;;;;;;;;;;9.70;99.90;;;9.14;100.00;96727.44;5001598;28;21588;-58
2022/12/24 00:11:16;;;;;;;;;;;9.70;99.90;;;9.16;100.00;96727.38;5013347;28;19925;-59
2022/12/24 00:13:42;;;;;;;;;;;9.70;99.90;;;9.25;100.00;96729.59;5000093;28;19930;-58
2022/12/24 00:16:07;;;;;;;;;;;9.80;99.90;;;9.32;100.00;96728.44;5013046;28;19921;-58
2022/12/24 00:18:33;;;;;;;;;;;9.80;99.90;;;9.39;100.00;96733.44;5002166;28;19935;-58
2022/12/24 00:21:00;;;;;;;;;;;9.90;99.90;;;9.42;100.00;96735.91;5009282;28;20139;-58
2022/12/24 00:23:26;;;;;;;;;;;9.90;99.90;;;9.53;100.00;96739.81;5011829;28;19928;-58
2022/12/24 00:25:51;;;;;;;;;;;10.00;99.90;;;9.47;100.00;96724.28;5015521;28;19925;-58
2022/12/24 00:28:17;;;;;;;;;;;10.10;99.90;;;9.66;100.00;96742.75;5008227;28;20436;-58
2022/12/24 00:30:43;;;;;;;;;;;10.20;99.90;;;9.63;100.00;96736.78;5003994;28;19959;-58
2022/12/24 00:33:08;;;;;;;;;;;10.10;99.90;;;9.66;100.00;96739.28;5005446;28;20026;-58
2022/12/24 00:35:36;;;;;;;;;;;10.20;99.90;;;9.59;100.00;96738.69;5005794;28;19979;-59
2022/12/24 00:38:02;;;;;;;;;;;10.10;99.90;;;9.50;100.00;96744.34;5018712;28;19921;-59
2022/12/24 00:40:29;;;;;;;;;;;10.10;99.90;;;9.41;100.00;96745.59;4996541;28;19917;-58
2022/12/24 00:42:54;;;;;;;;;;;10.00;99.90;;;9.29;100.00;96748.75;5013383;28;20354;-58
2022/12/24 00:45:20;;;;;;;;;;;9.90;99.90;;;9.20;100.00;96752.63;5016111;28;20538;-58
2022/12/24 00:47:46;;;;;;;;;;;9.80;99.90;;;9.12;100.00;96752.94;5010203;28;20028;-58
2022/12/24 00:50:11;;;;;;;;;;;9.70;99.90;;;9.01;100.00;96741.16;5015047;28;19985;-58
2022/12/24 00:52:37;;;;;;;;;;;9.60;99.90;;;8.87;100.00;96747.84;5015701;28;20011;-59
2022/12/24 00:55:03;;;;;;;;;;;9.50;99.90;;;8.75;100.00;96745.69;5012272;28;19929;-58
2022/12/24 00:57:28;;;;;;;;;;;9.40;99.90;;;8.64;100.00;96753.16;5017643;28;19917;-59
2022/12/24 00:59:54;;;;;;;;;;;9.20;99.90;;;8.59;100.00;96764.69;5004397;28;19946;-59
2022/12/24 01:02:20;;;;;;;;;;;9.20;99.90;;;8.55;100.00;96764.88;5011746;28;19944;-59
2022/12/24 01:07:29;;;;;;;;;;;9.10;99.90;;;8.56;100.00;96767.47;5014143;28;19967;-59
2022/12/24 01:09:55;;;;;;;;;;;9.20;99.90;;;8.71;100.00;96778.28;5017825;28;19925;-59
2022/12/24 01:12:21;;;;;;;;;;;9.30;99.90;;;8.77;100.00;96792.06;5020518;28;19917;-59
2022/12/24 01:14:46;;;;;;;;;;;9.40;99.90;;;8.86;100.00;96795.22;5014483;28;20011;-59
2022/12/24 01:17:12;;;;;;;;;;;9.40;99.90;;;8.92;100.00;96801.09;5011292;28;20435;-59
2022/12/24 01:19:37;;;;;;;;;;;9.50;99.90;;;8.98;100.00;96798.22;5016637;28;20376;-59
2022/12/24 01:22:03;;;;;;;;;;;9.60;99.90;;;9.04;100.00;96806.78;5011116;28;20067;-59
2022/12/24 01:24:29;;;;;;;;;;;9.60;99.90;;;9.09;100.00;96817.97;5015427;28;19975;-59
2022/12/24 01:26:54;;;;;;;;;;;9.70;99.90;;;9.12;100.00;96813.44;5012764;28;19928;-59
2022/12/24 01:29:20;;;;;;;;;;;9.70;99.90;;;9.14;100.00;96821.28;5003532;28;20333;-61
2022/12/24 01:31:45;;;;;;;;;;;9.70;99.90;;;9.16;100.00;96829.97;5005224;28;19929;-60
2022/12/24 01:34:11;;;;;;;;;;;9.70;99.90;;;9.17;100.00;96826.44;5004485;28;19944;-61
2022/12/24 01:36:37;;;;;;;;;;;9.80;99.90;;;9.18;100.00;96828.97;5001984;28;20041;-61
2022/12/24 01:39:03;;;;;;;;;;;9.80;99.90;;;9.15;100.00;96844.03;4999653;28;20061;-60
2022/12/24 01:44:26;;;;;;;;;;;9.80;99.90;;;9.09;100.00;96870.59;5010833;28;19924;-61
2022/12/24 01:47:05;;;;;;;;;;;9.70;99.90;;;9.01;100.00;96876.16;5010993;28;19928;-61
2022/12/24 01:49:31;;;;;;;;;;;9.60;99.90;;;8.91;100.00;96880.91;4997913;28;20316;-62
2022/12/24 01:52:03;;;;;;;;;;;9.50;99.90;;;8.85;100.00;96883.78;5016141;28;20002;-61
2022/12/24 01:54:37;;;;;;;;;;;9.40;99.90;;;8.75;100.00;96877.16;5013587;28;19925;-60
2022/12/24 01:57:06;;;;;;;;;;;9.30;99.90;;;8.73;100.00;96886.88;4997571;28;19917;-60
2022/12/24 01:59:33;;;;;;;;;;;9.30;99.90;;;8.68;100.00;96883.56;5020213;22;19901;-48
2022/12/24 02:01:59;;;;;;;;;;;9.20;99.90;;;8.66;100.00;96894.13;5017298;28;19924;-45
2022/12/24 02:04:36;;;;;;;;;;;9.20;99.90;;;8.65;100.00;96915.19;5033683;28;20500;-46
2022/12/24 02:07:02;;;;;;;;;;;9.20;99.90;;;8.64;100.00;96910.88;5008545;28;19923;-45
2022/12/24 02:09:28;;;;;;;;;;;9.20;99.90;;;8.59;100.00;96904.00;5033092;28;20005;-46
2022/12/24 02:11:53;;;;;;;;;;;9.10;99.90;;;8.38;100.00;96881.09;5015418;28;20173;-45
2022/12/24 02:14:19;;;;;;;;;;;9.10;99.90;;;8.49;100.00;96907.03;4995871;28;20658;-46
2022/12/24 02:17:24;;;;;;;;;;;9.10;99.90;;;8.46;100.00;96899.28;4996572;28;19983;-46
2022/12/24 02:20:35;;;;;;;;;;;9.00;99.90;;;8.43;100.00;96900.22;5014583;28;19924;-44
2022/12/24 02:23:29;;;;;;;;;;;9.00;99.90;;;8.33;100.00;96901.47;5003405;28;19921;-43
2022/12/24 02:26:13;;;;;;;;;;;8.90;99.90;;;8.19;100.00;96889.66;5007127;28;20012;-45
2022/12/24 02:29:11;;;;;;;;;;;8.80;99.90;;;8.04;100.00;96900.72;5004404;28;19928;-46
2022/12/24 02:31:38;;;;;;;;;;;8.70;99.90;;;7.94;100.00;96915.06;4983813;28;19928;-46
2022/12/24 02:34:07;;;;;;;;;;;8.50;99.90;;;7.85;100.00;96921.47;4987724;28;20427;-46
2022/12/24 02:37:21;;;;;;;;;;;8.50;99.90;;;7.82;100.00;96906.69;5007354;28;19940;-45
2022/12/24 02:40:28;;;;;;;;;;;8.50;99.90;;;7.82;100.00;96906.69;4955753;28;19925;-44
2022/12/24 02:42:57;;;;;;;;;;;8.40;99.90;;;7.74;100.00;96900.84;4959128;28;19925;-44
2022/12/24 02:45:29;;;;;;;;;;;8.40;99.90;;;7.72;100.00;96910.53;4993896;28;19959;-47
2022/12/24 02:47:55;;;;;;;;;;;8.30;99.90;;;7.65;100.00;96909.03;4985971;28;19917;-45
2022/12/24 02:50:22;;;;;;;;;;;8.30;99.90;;;7.59;100.00;96917.97;4996125;28;19924;-45
2022/12/24 02:52:48;;;;;;;;;;;8.20;99.90;;;7.54;100.00;96940.88;4986814;28;20060;-44
2022/12/24 02:55:33;;;;;;;;;;;8.20;99.90;;;7.46;100.00;96940.25;5001512;28;23433;-45
2022/12/24 02:58:26;;;;;;;;;;;8.10;99.90;;;7.44;100.00;96939.44;5010449;28;19928;-46
2022/12/24 03:01:14;;;;;;;;;;;8.00;99.90;;;7.41;100.00;96948.28;5011868;28;19939;-44
2022/12/24 03:04:09;;;;;;;;;;;8.00;99.90;;;7.45;100.00;96935.91;5015043;28;19931;-44
2022/12/24 03:06:56;;;;;;;;;;;8.10;99.90;;;7.49;100.00;96944.56;4990120;28;19921;-45
2022/12/24 03:09:26;;;;;;;;;;;8.10;99.90;;;7.53;100.00;96944.38;4996962;28;20438;-44
2022/12/24 03:11:58;;;;;;;;;;;8.10;99.90;;;7.56;100.00;96946.91;4986298;28;20412;-47
2022/12/24 03:14:25;;;;;;;;;;;8.20;99.90;;;7.59;100.00;96953.81;5010915;28;20337;-46
2022/12/24 03:16:50;;;;;;;;;;;8.20;99.90;;;7.63;100.00;96960.72;4996386;28;20380;-46
2022/12/24 03:19:16;;;;;;;;;;;8.30;99.90;;;7.61;100.00;96950.25;5011212;28;19925;-47
2022/12/24 03:21:42;;;;;;;;;;;8.30;99.90;;;7.69;100.00;96951.78;5002492;28;20014;-43
2022/12/24 03:24:09;;;;;;;;;;;8.30;99.90;;;7.69;100.00;96962.28;5006297;28;20020;-43
2022/12/24 03:26:35;;;;;;;;;;;8.30;99.90;;;7.70;100.00;96975.34;4985931;28;19945;-46
2022/12/24 03:29:04;;;;;;;;;;;8.30;99.90;;;7.71;100.00;96977.06;5009864;28;19940;-44
2022/12/24 03:31:44;;;;;;;;;;;8.30;99.90;;;7.73;100.00;96977.84;5001199;28;19917;-44
2022/12/24 03:34:10;;;;;;;;;;;8.40;99.90;;;7.77;100.00;96969.00;4997506;28;20274;-46
2022/12/24 03:36:36;;;;;;;;;;;8.40;99.90;;;7.77;100.00;96962.88;5005979;28;19932;-46
2022/12/24 03:39:03;;;;;;;;;;;8.40;99.90;;;7.82;100.00;96971.44;5008462;28;19921;-44
2022/12/24 03:41:29;;;;;;;;;;;8.40;99.90;;;7.83;100.00;96965.31;5014819;28;19920;-44
2022/12/24 03:43:55;;;;;;;;;;;8.50;99.90;;;7.86;100.00;96980.97;5010561;28;19928;-45
2022/12/24 03:46:20;;;;;;;;;;;8.50;99.90;;;7.82;100.00;96974.09;5009342;28;19964;-43
2022/12/24 03:48:46;;;;;;;;;;;8.50;99.90;;;7.90;100.00;96981.72;5012513;28;20563;-43
2022/12/24 03:51:19;;;;;;;;;;;8.50;99.90;;;7.92;100.00;96982.53;5011872;28;19925;-43
2022/12/24 03:53:45;;;;;;;;;;;8.50;99.90;;;7.92;100.00;96980.75;5010238;28;19929;-46
2022/12/24 03:56:11;;;;;;;;;;;8.50;99.90;;;7.95;100.00;96969.28;5012919;28;20401;-44
2022/12/24 03:58:36;;;;;;;;;;;8.50;99.90;;;7.86;100.00;96970.47;5012377;28;20002;-44
2022/12/24 04:01:02;;;;;;;;;;;8.50;99.90;;;7.89;100.00;96969.50;5007917;28;19921;-46
2022/12/24 04:03:28;;;;;;;;;;;8.50;99.90;;;7.91;100.00;96986.91;5012558;28;19917;-43
2022/12/24 04:06:05;;;;;;;;;;;8.50;99.90;;;7.96;100.00;96984.97;5011378;28;19999;-44
2022/12/24 04:08:31;;;;;;;;;;;8.60;99.90;;;7.96;100.00;96979.72;5007453;28;20369;-43
2022/12/24 04:10:57;;;;;;;;;;;8.60;99.90;;;7.93;100.00;96965.84;5013097;28;19932;-46
2022/12/24 04:13:23;;;;;;;;;;;8.60;99.90;;;7.90;100.00;96972.06;5015601;28;19933;-43
2022/12/24 04:16:09;;;;;;;;;;;8.60;99.90;;;7.97;100.00;96999.00;4996341;28;19921;-43
2022/12/24 04:18:35;;;;;;;;;;;8.60;99.90;;;7.95;100.00;96985.91;5010676;28;19944;-45
2022/12/24 04:21:01;;;;;;;;;;;8.60;99.90;;;7.97;100.00;96973.59;5014854;28;20511;-44
2022/12/24 04:23:29;;;;;;;;;;;8.60;99.90;;;7.92;100.00;96978.13;5019114;28;19924;-43
2022/12/24 04:25:55;;;;;;;;;;;8.60;99.90;;;7.92;100.00;96986.00;5009856;28;20239;-43
2022/12/24 04:28:20;;;;;;;;;;;8.50;99.90;;;7.97;100.00;96993.75;5011798;28;20023;-43
2022/12/24 04:30:46;;;;;;;;;;;8.60;99.90;;;7.97;100.00;96985.88;5010374;28;19925;-44
2022/12/24 04:33:11;;;;;;;;;;;8.60;99.90;;;7.99;100.00;96986.66;5013116;28;20407;-44
2022/12/24 04:35:39;;;;;;;;;;;8.60;99.90;;;8.00;100.00;96988.38;5008728;28;20077;-44
2022/12/24 04:38:05;;;;;;;;;;;8.60;99.90;;;7.86;100.00;96956.47;5011739;28;19968;-42
2022/12/24 04:40:30;;;;;;;;;;;8.60;99.90;;;8.03;100.00;96980.41;5012515;28;20032;-44
2022/12/24 04:42:56;;;;;;;;;;;8.60;99.90;;;8.03;100.00;96989.13;5012210;28;20335;-45
2022/12/24 04:45:21;;;;;;;;;;;8.60;99.90;;;7.96;100.00;96976.25;5011327;28;20361;-45
2022/12/24 04:47:47;;;;;;;;;;;8.60;99.90;;;8.07;100.00;96994.28;5010840;28;19936;-43
2022/12/24 04:50:13;;;;;;;;;;;8.60;99.90;;;8.07;100.00;96995.13;5014574;28;20457;-43
2022/12/24 04:52:38;;;;;;;;;;;8.70;99.90;;;8.06;100.00;96993.44;5012262;28;19925;-46
2022/12/24 04:55:04;;;;;;;;;;;8.60;99.90;;;8.02;100.00;96997.03;5012477;28;20012;-43
2022/12/24 04:57:31;;;;;;;;;;;8.60;99.90;;;7.97;100.00;97002.47;4998404;28;19917;-43
2022/12/24 04:59:57;;;;;;;;;;;8.60;99.90;;;7.97;100.00;97025.25;5006214;28;19974;-46
2022/12/24 05:02:22;;;;;;;;;;;8.60;99.90;;;7.84;100.00;96995.88;5017793;28;19921;-43
2022/12/24 05:04:48;;;;;;;;;;;8.50;99.90;;;7.88;100.00;97013.28;5016716;28;19921;-46
2022/12/24 05:07:13;;;;;;;;;;;8.50;99.90;;;7.79;100.00;97011.81;5007870;28;19972;-45
2022/12/24 05:09:39;;;;;;;;;;;8.40;99.90;;;7.72;100.00;97002.41;5015603;28;20577;-44
2022/12/24 05:12:05;;;;;;;;;;;8.30;99.90;;;7.66;100.00;97010.47;5014065;28;20370;-43
2022/12/24 05:14:30;;;;;;;;;;;8.30;99.90;;;7.52;100.00;96999.53;5012799;28;19945;-44
2022/12/24 05:16:56;;;;;;;;;;;8.20;99.90;;;7.52;100.00;97007.41;5006658;28;20191;-45
2022/12/24 05:19:21;;;;;;;;;;;8.20;99.90;;;7.48;100.00;97013.66;5014471;28;19925;-44
2022/12/24 05:26:20;;;;;;;;;;;8.10;99.90;;;7.49;100.00;97018.03;5006657;28;19952;-44
2022/12/24 05:27:17;;;;;;;;;;;8.10;99.90;;;7.52;100.00;97012.66;5008051;28;19928;-47
2022/12/24 05:29:42;;;;;;;;;;;8.10;99.90;;;7.52;100.00;97016.16;4996131;28;19917;-48
2022/12/24 05:32:08;;;;;;;;;;;8.10;99.90;;;7.48;100.00;97011.03;5007266;28;19921;-43
2022/12/24 05:34:34;;;;;;;;;;;8.10;99.90;;;7.50;100.00;97015.34;5018950;28;20031;-43
2022/12/24 05:36:59;;;;;;;;;;;8.10;99.90;;;7.47;100.00;97014.59;5016567;28;20245;-45
2022/12/24 05:39:25;;;;;;;;;;;8.10;99.90;;;7.48;100.00;97014.50;5015317;28;20423;-47
2022/12/24 05:41:50;;;;;;;;;;;8.10;99.90;;;7.47;100.00;97015.44;5016074;28;19970;-44
2022/12/24 05:44:16;;;;;;;;;;;8.10;99.90;;;7.44;100.00;97019.00;5015633;28;19934;-46
2022/12/24 05:46:42;;;;;;;;;;;8.10;99.90;;;7.43;100.00;97008.56;5012616;28;19917;-45
2022/12/24 05:49:08;;;;;;;;;;;8.10;99.90;;;7.44;100.00;97013.75;5013290;28;19925;-43
2022/12/24 05:51:33;;;;;;;;;;;8.10;99.90;;;7.43;100.00;97017.28;5006642;28;19921;-47
2022/12/24 05:53:59;;;;;;;;;;;8.10;99.90;;;7.35;100.00;97008.78;5007123;28;20032;-45
2022/12/24 05:56:25;;;;;;;;;;;8.00;99.90;;;7.34;100.00;97017.59;5006286;28;20003;-49
2022/12/24 05:58:52;;;;;;;;;;;8.00;99.90;;;7.31;100.00;97015.03;4986647;28;20003;-44
2022/12/24 06:01:18;;;;;;;;;;;8.00;99.90;;;7.26;100.00;97024.81;5013640;28;20377;-44
2022/12/24 06:03:44;;;;;;;;;;;7.90;99.90;;;7.22;100.00;97025.81;5010573;28;19920;-44
2022/12/24 06:06:20;;;;;;;;;;;7.90;99.90;;;7.20;100.00;97030.25;5013330;28;20103;-47
2022/12/24 06:08:46;;;;;;;;;;;7.80;99.90;;;7.21;100.00;97024.97;5012961;28;19917;-44
2022/12/24 06:11:14;;;;;;;;;;;7.90;99.90;;;7.21;100.00;97032.81;5012494;28;19991;-43
2022/12/24 06:13:41;;;;;;;;;;;7.80;99.90;;;7.18;100.00;97034.69;5010671;28;19932;-45
2022/12/24 06:16:10;;;;;;;;;;;7.90;99.90;;;7.25;100.00;97047.56;5005900;28;20051;-43
2022/12/24 06:18:36;;;;;;;;;;;7.90;99.90;;;7.22;100.00;97031.06;5003497;28;19926;-44
2022/12/24 06:21:03;;;;;;;;;;;7.90;99.90;;;7.19;100.00;97039.00;5006534;28;19924;-46
2022/12/24 06:23:31;;;;;;;;;;;7.80;99.90;;;7.16;100.00;97041.72;5010029;28;19917;-44
2022/12/24 06:25:59;;;;;;;;;;;7.80;99.90;;;7.19;100.00;97042.47;5011679;28;20300;-45
2022/12/24 06:28:26;;;;;;;;;;;7.80;99.90;;;7.14;100.00;97039.16;5014793;28;20528;-43
2022/12/24 06:30:52;;;;;;;;;;;7.80;99.90;;;7.14;100.00;97054.00;5002724;28;19917;-44
2022/12/24 06:33:17;;;;;;;;;;;7.80;99.90;;;7.10;100.00;97052.38;5013977;28;19951;-44
2022/12/24 06:35:44;;;;;;;;;;;7.80;99.90;;;7.08;100.00;97058.53;5009539;28;19960;-45
2022/12/24 06:38:09;;;;;;;;;;;7.70;99.90;;;7.06;100.00;97062.97;5012474;28;19982;-44
2022/12/24 06:40:37;;;;;;;;;;;7.70;99.90;;;7.06;100.00;97077.84;5007624;28;19926;-45
2022/12/24 06:43:02;;;;;;;;;;;7.70;99.90;;;7.04;100.00;97075.25;5007878;28;19921;-45
2022/12/24 06:45:28;;;;;;;;;;;7.70;99.90;;;7.01;100.00;97071.84;4994857;28;19924;-44
2022/12/24 06:47:54;;;;;;;;;;;7.70;99.90;;;6.90;100.00;97068.69;5006416;28;20394;-48
2022/12/24 06:50:19;;;;;;;;;;;7.70;99.90;;;7.07;100.00;97090.06;5016150;28;21963;-44
2022/12/24 06:52:45;;;;;;;;;;;7.70;99.90;;;7.07;100.00;97106.63;5014158;28;19929;-45
2022/12/24 06:55:11;;;;;;;;;;;7.70;99.90;;;7.14;100.00;97109.09;5018693;28;19925;-44
2022/12/24 06:57:36;;;;;;;;;;;7.80;99.90;;;7.21;100.00;97105.38;5009737;28;19921;-44
2022/12/24 07:00:02;;;;;;;;;;;7.80;99.90;;;7.27;100.00;97102.59;5013690;28;20385;-46
2022/12/24 07:02:28;;;;;;;;;;;7.90;99.90;;;7.33;100.00;97098.94;5005707;28;19923;-46
2022/12/24 07:04:54;;;;;;;;;;;8.00;99.90;;;7.39;100.00;97097.00;5010031;28;19921;-47
2022/12/24 07:07:19;;;;;;;;;;;8.00;99.90;;;7.42;100.00;97102.16;5012428;28;20370;-46
2022/12/24 07:09:45;;;;;;;;;;;8.10;99.90;;;7.40;100.00;97080.34;5017178;28;20711;-47
2022/12/24 07:12:10;;;;;;;;;;;8.10;99.90;;;7.42;100.00;97096.91;5014668;28;19918;-45
2022/12/24 07:14:36;;;;;;;;;;;8.10;99.90;;;7.49;100.00;97109.84;5015067;28;19936;-45
2022/12/24 07:17:02;;;;;;;;;;;8.10;99.90;;;7.49;100.00;97117.72;5005193;28;19960;-45
2022/12/24 07:19:27;;;;;;;;;;;8.10;99.90;;;7.50;100.00;97117.69;5007765;28;19929;-47
2022/12/24 07:21:53;;;;;;;;;;;8.10;99.90;;;7.47;100.00;97123.00;5004438;28;20388;-47
2022/12/24 07:24:19;;;;;;;;;;;8.10;99.90;;;7.43;100.00;97134.50;5012472;28;19963;-45
2022/12/24 07:26:44;;;;;;;;;;;8.10;99.90;;;7.38;100.00;97141.66;4999913;28;20002;-45
2022/12/24 07:29:10;;;;;;;;;;;8.00;99.90;;;7.31;100.00;97146.19;5010334;28;20055;-45
2022/12/24 07:31:36;;;;;;;;;;;8.00;99.90;;;7.26;100.00;97150.72;5003740;28;19921;-47
2022/12/24 07:34:01;;;;;;;;;;;7.90;99.90;;;7.21;100.00;97161.34;5003504;28;20701;-44
2022/12/24 07:36:27;;;;;;;;;;;7.90;99.90;;;7.15;100.00;97151.00;5006183;28;19959;-45
2022/12/24 07:38:53;;;;;;;;;;;7.90;99.90;;;7.21;100.00;97155.22;5010245;28;19967;-46
2022/12/24 07:41:19;;;;;;;;;;;7.90;99.90;;;7.19;100.00;97150.00;4996698;28;19921;-44
2022/12/24 07:43:45;;;;;;;;;;;7.80;99.90;;;7.15;100.00;97145.75;5013852;28;20274;-47
2022/12/24 07:46:10;;;;;;;;;;;7.80;99.90;;;7.13;100.00;97146.72;5011248;28;20020;-44
2022/12/24 07:48:36;;;;;;;;;;;7.70;99.90;;;7.10;100.00;97155.50;5010878;28;19925;-46
2022/12/24 07:51:02;;;;;;;;;;;7.70;99.90;;;7.11;100.00;97165.09;5013901;28;20361;-44
2022/12/24 07:53:28;;;;;;;;;;;7.70;99.90;;;7.13;100.00;97155.44;5015325;28;20401;-45
2022/12/24 07:55:54;;;;;;;;;;;7.80;99.90;;;7.19;100.00;97157.88;5011960;28;19928;-44
2022/12/24 07:58:20;;;;;;;;;;;7.80;99.90;;;7.28;100.00;97161.16;5013223;28;21465;-44
2022/12/24 08:00:46;;;;;;;;;;;7.90;99.90;;;7.34;100.00;97172.34;5037956;22;20050;-62
2022/12/24 08:03:19;;;;;;;;;;;8.00;99.90;;;7.38;100.00;97173.97;5033458;28;20023;-61
2022/12/24 08:05:44;;;;;;;;;;;8.00;99.90;;;7.36;100.00;97165.28;5035924;28;19943;-61
2022/12/24 08:08:10;;;;;;;;;;;8.00;99.90;;;7.35;100.00;97167.97;5030704;28;19966;-62
2022/12/24 08:10:39;;;;;;;;;;;8.00;99.90;;;7.30;100.00;97168.06;5020019;28;19933;-62
2022/12/24 08:13:05;;;;;;;;;;;7.90;99.90;;;7.30;100.00;97160.22;5014288;28;19921;-62
2022/12/24 08:15:31;;;;;;;;;;;7.90;99.90;;;7.22;100.00;97167.44;5019712;28;20365;-62
2022/12/24 08:17:56;;;;;;;;;;;7.90;99.90;;;7.26;100.00;97175.16;5011587;28;20401;-62
2022/12/24 08:20:22;;;;;;;;;;;7.90;99.90;;;7.25;100.00;97173.47;5019207;28;19999;-62
2022/12/24 08:22:47;;;;;;;;;;;7.90;99.90;;;7.22;100.00;97170.91;5013741;28;20335;-62
2022/12/24 08:25:13;;;;;;;;;;;7.90;99.90;;;7.20;100.00;97171.88;5014881;28;20329;-62
2022/12/24 08:27:39;;;;;;;;;;;7.80;99.90;;;7.04;100.00;97146.06;5009382;28;19921;-62
2022/12/24 08:30:05;;;;;;;;;;;7.80;99.90;;;7.25;100.00;97190.97;5012017;28;19975;-61
2022/12/24 08:32:30;;;;;;;;;;;7.90;99.90;;;7.33;100.00;97201.25;5001277;28;20532;-61
2022/12/24 08:34:56;;;;;;;;;;;7.90;99.90;;;7.40;100.00;97194.94;5011764;28;19929;-61
2022/12/24 08:37:22;;;;;;;;;;;8.00;99.90;;;7.39;100.00;97186.22;5015296;28;20131;-62
2022/12/24 08:39:47;;;;;;;;;;;8.10;99.90;;;7.47;100.00;97198.25;5011704;28;20434;-61
2022/12/24 08:42:13;;;;;;;;;;;8.10;99.90;;;7.48;100.00;97194.72;5001919;28;19925;-62
2022/12/24 08:44:38;;;;;;;;;;;8.10;99.90;;;7.45;100.00;97207.00;5009702;28;20004;-62
2022/12/24 08:47:04;;;;;;;;;;;8.10;99.90;;;7.44;100.00;97204.44;5005332;28;19927;-62
2022/12/24 08:49:30;;;;;;;;;;;8.10;99.90;;;7.37;100.00;97211.59;5012611;28;20024;-63
2022/12/24 08:51:55;;;;;;;;;;;8.00;99.90;;;7.30;100.00;97204.78;5014471;28;19921;-62
2022/12/24 08:54:22;;;;;;;;;;;7.90;99.90;;;7.21;100.00;97207.66;5003101;28;20000;-62
2022/12/24 08:56:48;;;;;;;;;;;7.90;99.90;;;7.17;100.00;97222.63;5007988;28;19925;-62
2022/12/24 08:59:14;;;;;;;;;;;7.80;99.90;;;7.15;100.00;97226.22;5015821;28;20282;-62
2022/12/24 09:01:39;;;;;;;;;;;7.80;99.90;;;7.14;100.00;97216.59;5008416;28;20095;-62
2022/12/24 09:04:05;;;;;;;;;;;7.80;99.90;;;7.17;100.00;97221.78;5013340;28;19976;-62
2022/12/24 09:06:31;;;;;;;;;;;7.80;99.90;;;7.16;100.00;97218.31;5006426;28;19963;-62
2022/12/24 09:08:57;;;;;;;;;;;7.80;99.90;;;7.20;100.00;97227.81;5008972;28;19932;-62
2022/12/24 09:11:23;;;;;;;;;;;7.80;99.90;;;7.25;100.00;97228.53;4996441;28;19925;-62
2022/12/24 09:13:49;;;;;;;;;;;7.90;99.90;;;7.36;100.00;97227.41;4992229;28;19925;-62
2022/12/24 09:16:15;;;;;;;;;;;8.00;99.90;;;7.44;100.00;97230.66;5005565;28;19925;-63
2022/12/24 09:18:40;;;;;;;;;;;8.10;99.90;;;7.55;100.00;97233.00;5004437;28;19921;-62
2022/12/24 09:21:10;;;;;;;;;;;8.20;99.90;;;7.60;100.00;97246.84;4992331;28;19917;-62
2022/12/24 09:23:40;;;;;;;;;;;8.30;99.90;;;7.69;100.00;97256.25;5007228;28;19925;-62
2022/12/24 09:26:11;;;;;;;;;;;8.30;99.90;;;7.76;100.00;97250.78;4991563;28;19926;-63
2022/12/24 09:28:37;;;;;;;;;;;8.40;99.90;;;7.84;100.00;97251.44;5000459;28;20033;-63
2022/12/24 09:31:03;;;;;;;;;;;8.50;99.90;;;7.92;100.00;97256.47;5005471;28;20925;-62
2022/12/24 09:33:34;;;;;;;;;;;8.60;99.90;;;8.01;100.00;97257.97;5006105;28;19921;-57
2022/12/24 09:36:01;;;;;;;;;;;8.60;99.90;;;8.09;100.00;97261.22;5017341;28;20447;-55
2022/12/24 09:38:26;;;;;;;;;;;8.70;99.90;;;8.13;100.00;97260.25;5016109;28;19925;-55
2022/12/24 09:40:53;;;;;;;;;;;8.70;99.90;;;8.18;100.00;97257.44;5012648;28;19923;-53
2022/12/24 09:43:28;;;;;;;;;;;8.80;99.90;;;8.17;100.00;97264.47;5014760;28;19925;-57
2022/12/24 09:46:16;;;;;;;;;;;8.80;99.90;;;8.16;100.00;97268.00;4998379;28;19925;-57
2022/12/24 09:48:48;;;;;;;;;;;8.80;99.90;;;8.10;100.00;97256.84;4997962;28;20047;-57
2022/12/24 09:51:35;;;;;;;;;;;8.80;99.90;;;8.03;100.00;97249.13;4997725;28;19933;-57
2022/12/24 09:54:04;;;;;;;;;;;8.70;99.90;;;7.99;100.00;97249.28;4997481;28;19933;-57
2022/12/24 09:56:32;;;;;;;;;;;8.60;99.90;;;7.97;100.00;97257.19;4996982;28;19917;-57
2022/12/24 09:59:00;;;;;;;;;;;8.60;99.90;;;7.96;100.00;97244.94;5009499;28;20147;-58
2022/12/24 10:01:28;;;;;;;;;;;8.70;99.90;;;8.05;100.00;97248.22;5003448;28;19925;-57
2022/12/24 10:03:54;;;;;;;;;;;8.80;99.90;;;8.23;100.00;97259.03;5004868;28;19929;-58
2022/12/24 10:06:23;;;;;;;;;;;8.90;99.90;;;8.37;100.00;97256.00;5010274;28;20361;-57
2022/12/24 10:09:24;;;;;;;;;;;9.00;99.90;;;8.50;100.00;97250.41;5001271;28;19956;-58
2022/12/24 10:11:57;;;;;;;;;;;9.10;99.90;;;8.60;100.00;97254.47;4999503;28;19925;-50
2022/12/24 10:14:43;;;;;;;;;;;9.20;99.90;;;8.63;100.00;97258.75;5005735;28;20012;-57
2022/12/24 10:17:50;;;;;;;;;;;9.20;99.90;;;8.58;100.00;97253.66;4955671;28;20435;-56
2022/12/24 10:20:24;;;;;;;;;;;9.20;99.90;;;8.52;100.00;97254.69;5018006;28;19982;-56
2022/12/24 10:23:04;;;;;;;;;;;9.20;99.90;;;8.52;100.00;97262.56;5005208;28;20760;-57
2022/12/24 10:25:37;;;;;;;;;;;9.20;99.90;;;8.48;100.00;97260.97;5006686;28;20357;-57
2022/12/24 10:28:12;;;;;;;;;;;9.10;99.90;;;8.45;100.00;97271.56;5003786;28;19928;-56
2022/12/24 10:30:38;;;;;;;;;;;9.10;99.90;;;8.47;100.00;97269.78;5010252;28;19982;-57
2022/12/24 10:33:15;;;;;;;;;;;9.10;99.90;;;8.47;100.00;97277.66;5005252;28;19994;-57
2022/12/24 10:35:45;;;;;;;;;;;9.10;99.90;;;8.49;100.00;97286.34;5016868;28;20007;-57
2022/12/24 10:38:11;;;;;;;;;;;9.10;99.90;;;8.52;100.00;97286.22;5014634;28;19959;-55
2022/12/24 10:40:39;;;;;;;;;;;9.10;99.90;;;8.52;100.00;97274.88;5005644;28;20000;-54
2022/12/24 10:43:16;;;;;;;;;;;9.10;99.90;;;8.52;100.00;97275.72;5011366;28;19925;-55
2022/12/24 10:45:46;;;;;;;;;;;9.10;99.90;;;8.51;100.00;97274.00;5011990;28;19917;-55
2022/12/24 10:48:18;;;;;;;;;;;9.10;99.90;;;8.51;100.00;97274.00;5008814;28;19921;-56
2022/12/24 10:50:51;;;;;;;;;;;9.10;99.90;;;8.56;100.00;97277.38;5007491;28;20494;-54
2022/12/24 10:53:37;;;;;;;;;;;9.20;99.90;;;8.71;100.00;97285.69;5003445;28;19925;-54
2022/12/24 10:56:06;;;;;;;;;;;9.30;99.90;;;8.88;100.00;97283.41;5004326;28;19925;-56
2022/12/24 10:58:32;;;;;;;;;;;9.50;99.90;;;9.06;100.00;97288.94;5011401;28;19925;-56
2022/12/24 11:00:58;;;;;;;;;;;9.60;99.90;;;9.14;100.00;97282.53;5013797;28;19937;-56
2022/12/24 11:03:28;;;;;;;;;;;9.80;99.90;;;9.29;100.00;97275.88;5003284;28;20003;-56
2022/12/24 11:06:14;;;;;;;;;;;9.90;99.90;;;9.46;100.00;97269.22;5010321;28;19926;-53
2022/12/24 11:08:42;;;;;;;;;;;10.10;99.90;;;9.61;100.00;97276.56;5003821;28;19932;-55
2022/12/24 11:11:11;;;;;;;;;;;10.20;99.90;;;9.73;100.00;97270.00;5006215;28;20856;-56
2022/12/24 11:13:43;;;;;;;;;;;10.30;99.90;;;9.78;100.00;97269.81;5021784;28;19994;-57
2022/12/24 11:16:28;;;;;;;;;;;10.40;99.90;;;9.81;100.00;97270.56;5012689;28;19932;-57
2022/12/24 11:19:02;;;;;;;;;;;10.50;99.90;;;9.83;100.00;97273.16;5013129;28;20313;-56
2022/12/24 11:21:33;;;;;;;;;;;10.50;99.90;;;9.84;100.00;97282.78;5005714;28;19917;-55
2022/12/24 11:24:12;;;;;;;;;;;10.40;99.90;;;9.81;100.00;97275.84;5022537;28;21555;-56
2022/12/24 11:26:38;;;;;;;;;;;10.40;99.90;;;9.75;100.00;97273.44;5003234;28;19987;-55
2022/12/24 11:29:24;;;;;;;;;;;10.40;99.90;;;9.81;100.00;97283.75;5005714;28;19924;-54
2022/12/24 11:31:51;;;;;;;;;;;10.40;99.90;;;9.84;100.00;97282.78;5019385;28;19923;-54
2022/12/24 11:34:26;;;;;;;;;;;10.40;99.90;;;9.77;100.00;97270.75;4998993;28;19925;-55
2022/12/24 11:36:53;;;;;;;;;;;10.40;99.90;;;9.87;100.00;97282.66;5000806;28;20467;-53
2022/12/24 11:39:21;;;;;;;;;;;10.50;99.90;;;9.89;100.00;97280.84;5000567;28;20381;-55
2022/12/24 11:41:49;;;;;;;;;;;10.50;99.90;;;9.93;100.00;97279.81;5002497;28;19986;-56